createdAt,value
2023-02-17T00:27:38.339Z,26.91
2023-02-17T00:28:38.333Z,26.92
2023-02-17T00:29:38.346Z,26.89
2023-02-17T00:30:38.303Z,26.92
2023-02-17T00:31:38.430Z,26.92
2023-02-17T00:32:38.283Z,26.91
2023-02-17T00:33:38.252Z,26.91
2023-02-17T00:34:38.241Z,26.89
2023-02-17T00:35:38.217Z,26.89
2023-02-17T00:36:38.207Z,26.91
2023-02-17T00:37:38.179Z,26.89
2023-02-17T00:38:38.168Z,26.92
2023-02-17T00:39:38.141Z,26.94
2023-02-17T00:40:38.114Z,26.89
2023-02-17T00:41:38.101Z,26.89
2023-02-17T00:42:38.117Z,26.91
2023-02-17T00:43:38.081Z,26.88
2023-02-17T00:44:38.069Z,26.88
2023-02-17T00:45:38.018Z,26.89
2023-02-17T00:46:38.088Z,26.88
2023-02-17T00:47:38.018Z,26.89
2023-02-17T00:48:37.997Z,26.89
2023-02-17T00:49:37.958Z,26.87
2023-02-17T00:50:37.916Z,26.87
2023-02-17T00:51:37.922Z,26.85
2023-02-17T00:52:37.927Z,26.88
2023-02-17T00:53:37.892Z,26.88
2023-02-17T00:54:37.846Z,26.85
2023-02-17T00:55:37.833Z,26.89
2023-02-17T00:56:37.822Z,26.89
2023-02-17T00:57:37.811Z,26.87
2023-02-17T00:58:37.771Z,26.88
2023-02-17T00:59:37.733Z,26.87
2023-02-17T01:00:37.737Z,26.88
2023-02-17T01:01:37.751Z,26.88
2023-02-17T01:02:37.708Z,26.85
2023-02-17T01:03:37.667Z,26.85
2023-02-17T01:04:37.646Z,26.87
2023-02-17T01:05:37.609Z,26.88
2023-02-17T01:06:37.590Z,26.91
2023-02-17T01:07:37.596Z,26.85
2023-02-17T01:08:37.571Z,26.85
2023-02-17T01:09:37.543Z,26.87
2023-02-17T01:10:37.550Z,26.85
2023-02-17T01:11:37.519Z,26.85
2023-02-17T01:12:37.535Z,26.85
2023-02-17T01:13:37.476Z,26.84
2023-02-17T01:14:37.477Z,26.84
2023-02-17T01:15:37.455Z,26.84
2023-02-17T01:16:37.415Z,26.84
2023-02-17T01:17:37.424Z,26.85
2023-02-17T01:18:37.369Z,26.85
2023-02-17T01:19:37.362Z,26.85
2023-02-17T01:20:37.352Z,26.84
2023-02-17T01:21:37.344Z,26.85
2023-02-17T01:22:37.293Z,26.85
2023-02-17T01:23:37.275Z,26.84
2023-02-17T01:24:37.271Z,26.85
2023-02-17T01:25:37.240Z,26.82
2023-02-17T01:26:37.199Z,26.87
2023-02-17T01:27:37.204Z,26.82
2023-02-17T01:28:37.169Z,26.85
2023-02-17T01:29:37.176Z,26.85
2023-02-17T01:30:37.170Z,26.84
2023-02-17T01:31:37.317Z,26.84
2023-02-17T01:32:37.140Z,26.84
2023-02-17T01:33:37.131Z,26.81
2023-02-17T01:34:37.099Z,26.84
2023-02-17T01:35:37.089Z,26.85
2023-02-17T01:36:37.068Z,26.82
2023-02-17T01:37:37.074Z,26.82
2023-02-17T01:38:37.036Z,26.82
2023-02-17T01:39:37.058Z,26.82
2023-02-17T01:40:37.021Z,26.81
2023-02-17T01:41:37.031Z,26.81
2023-02-17T01:42:36.990Z,26.84
2023-02-17T01:43:36.989Z,26.81
2023-02-17T01:44:36.955Z,26.81
2023-02-17T01:45:36.930Z,26.84
2023-02-17T01:46:36.944Z,26.82
2023-02-17T01:47:36.914Z,26.80
2023-02-17T01:48:36.875Z,26.82
2023-02-17T01:49:36.862Z,26.82
2023-02-17T01:50:36.843Z,26.82
2023-02-17T01:51:36.810Z,26.81
2023-02-17T01:52:36.824Z,26.81
2023-02-17T01:53:36.787Z,26.81
2023-02-17T01:54:36.763Z,26.81
2023-02-17T01:55:36.754Z,26.81
2023-02-17T01:56:36.720Z,26.82
2023-02-17T01:57:36.755Z,26.80
2023-02-17T01:58:36.716Z,26.80
2023-02-17T01:59:36.678Z,26.81
2023-02-17T02:00:36.656Z,26.81
2023-02-17T02:01:36.694Z,26.81
2023-02-17T02:02:36.693Z,26.82
2023-02-17T02:03:36.622Z,26.81
2023-02-17T02:04:36.614Z,26.80
2023-02-17T02:05:37.615Z,26.78
2023-02-17T02:06:36.593Z,26.78
2023-02-17T02:07:36.549Z,26.77
2023-02-17T02:08:36.546Z,26.80
2023-02-17T02:09:36.531Z,26.78
2023-02-17T02:10:36.508Z,26.81
2023-02-17T02:11:36.507Z,26.78
2023-02-17T02:12:36.477Z,26.81
2023-02-17T02:13:36.470Z,26.80
2023-02-17T02:14:36.430Z,26.80
2023-02-17T02:15:36.428Z,26.80
2023-02-17T02:16:36.422Z,26.77
2023-02-17T02:17:36.421Z,26.78
2023-02-17T02:18:36.419Z,26.78
2023-02-17T02:19:36.377Z,26.78
2023-02-17T02:20:36.376Z,26.77
2023-02-17T02:21:36.355Z,26.78
2023-02-17T02:22:36.336Z,26.80
2023-02-17T02:23:36.351Z,26.78
2023-02-17T02:24:36.343Z,26.80
2023-02-17T02:25:36.317Z,26.77
2023-02-17T02:26:36.308Z,26.77
2023-02-17T02:27:36.284Z,26.77
2023-02-17T02:28:36.307Z,26.78
2023-02-17T02:29:36.279Z,26.77
2023-02-17T02:30:36.265Z,26.77
2023-02-17T02:31:36.273Z,26.80
2023-02-17T02:32:36.250Z,26.77
2023-02-17T02:33:36.245Z,26.75
2023-02-17T02:34:36.217Z,26.77
2023-02-17T02:35:36.257Z,26.75
2023-02-17T02:36:36.176Z,26.77
2023-02-17T02:37:36.174Z,26.75
2023-02-17T02:38:36.188Z,26.77
2023-02-17T02:39:36.149Z,26.75
2023-02-17T02:40:36.160Z,26.77
2023-02-17T02:41:36.145Z,26.75
2023-02-17T02:42:36.129Z,26.73
2023-02-17T02:43:36.128Z,26.71
2023-02-17T02:44:36.097Z,26.67
2023-02-17T02:45:36.100Z,26.64
2023-02-17T02:46:36.069Z,26.63
2023-02-17T02:47:36.041Z,26.58
2023-02-17T02:48:36.032Z,26.57
2023-02-17T02:49:36.009Z,26.51
2023-02-17T02:50:36.023Z,26.46
2023-02-17T02:51:35.959Z,26.46
2023-02-17T02:52:35.965Z,26.43
2023-02-17T02:53:35.977Z,26.35
2023-02-17T02:54:35.937Z,26.35
2023-02-17T02:55:35.916Z,26.29
2023-02-17T02:56:35.907Z,26.26
2023-02-17T02:57:35.885Z,26.25
2023-02-17T02:58:35.877Z,26.19
2023-02-17T02:59:35.877Z,26.16
2023-02-17T03:00:35.867Z,26.12
2023-02-17T03:01:35.879Z,26.11
2023-02-17T03:02:35.821Z,26.08
2023-02-17T03:03:35.849Z,26.03
2023-02-17T03:04:35.815Z,26.02
2023-02-17T03:05:35.792Z,25.99
2023-02-17T03:06:35.796Z,26.01
2023-02-17T03:07:35.762Z,25.99
2023-02-17T03:08:35.765Z,25.96
2023-02-17T03:09:35.773Z,25.94
2023-02-17T03:10:35.755Z,25.92
2023-02-17T03:11:35.743Z,25.92
2023-02-17T03:12:35.730Z,25.89
2023-02-17T03:13:35.729Z,25.87
2023-02-17T03:14:35.740Z,25.88
2023-02-17T03:15:35.699Z,25.85
2023-02-17T03:16:35.709Z,25.85
2023-02-17T03:17:35.660Z,25.85
2023-02-17T03:18:35.669Z,25.83
2023-02-17T03:19:35.677Z,25.84
2023-02-17T03:20:35.646Z,25.83
2023-02-17T03:21:35.634Z,25.78
2023-02-17T03:22:35.628Z,25.78
2023-02-17T03:23:35.618Z,25.75
2023-02-17T03:24:35.626Z,25.77
2023-02-17T03:25:35.609Z,25.77
2023-02-17T03:26:35.586Z,25.75
2023-02-17T03:27:35.564Z,25.75
2023-02-17T03:28:35.568Z,25.73
2023-02-17T03:29:35.573Z,25.71
2023-02-17T03:30:35.533Z,25.70
2023-02-17T03:31:35.615Z,25.70
2023-02-17T03:32:35.549Z,25.67
2023-02-17T03:33:35.548Z,25.67
2023-02-17T03:34:35.531Z,25.68
2023-02-17T03:35:35.516Z,25.67
2023-02-17T03:36:35.514Z,25.64
2023-02-17T03:37:35.503Z,25.63
2023-02-17T03:38:35.525Z,25.63
2023-02-17T03:39:35.511Z,25.60
2023-02-17T03:40:35.476Z,25.58
2023-02-17T03:41:35.475Z,25.58
2023-02-17T03:42:35.483Z,25.54
2023-02-17T03:43:35.499Z,25.57
2023-02-17T03:44:35.555Z,25.56
2023-02-17T03:45:35.534Z,25.57
2023-02-17T03:46:35.474Z,25.54
2023-02-17T03:47:35.438Z,25.53
2023-02-17T03:48:35.440Z,25.51
2023-02-17T03:49:35.458Z,25.53
2023-02-17T03:50:35.418Z,25.51
2023-02-17T03:51:35.389Z,25.47
2023-02-17T03:52:35.425Z,25.50
2023-02-17T03:53:35.396Z,25.47
2023-02-17T03:54:35.396Z,25.47
2023-02-17T03:55:35.425Z,25.47
2023-02-17T03:56:35.350Z,25.49
2023-02-17T03:57:35.378Z,25.46
2023-02-17T03:58:35.357Z,25.46
2023-02-17T03:59:35.309Z,25.44
2023-02-17T04:00:35.339Z,25.43
2023-02-17T04:01:35.351Z,25.41
2023-02-17T04:02:35.291Z,25.40
2023-02-17T04:03:35.275Z,25.39
2023-02-17T04:04:35.252Z,25.40
2023-02-17T04:05:35.311Z,25.39
2023-02-17T04:06:35.251Z,25.39
2023-02-17T04:07:35.258Z,25.39
2023-02-17T04:08:35.223Z,25.39
2023-02-17T04:09:35.246Z,25.37
2023-02-17T04:10:35.241Z,25.40
2023-02-17T04:11:35.223Z,25.39
2023-02-17T04:12:35.216Z,25.40
2023-02-17T04:13:35.216Z,25.44
2023-02-17T04:14:35.189Z,25.46
2023-02-17T04:15:35.206Z,25.49
2023-02-17T04:16:35.148Z,25.50
2023-02-17T04:17:35.155Z,25.50
2023-02-17T04:18:35.155Z,25.51
2023-02-17T04:19:35.132Z,25.53
2023-02-17T04:20:35.152Z,25.56
2023-02-17T04:21:35.105Z,25.56
2023-02-17T04:22:35.116Z,25.58
2023-02-17T04:23:35.116Z,25.57
2023-02-17T04:24:35.109Z,25.60
2023-02-17T04:25:35.122Z,25.61
2023-02-17T04:26:35.092Z,25.61
2023-02-17T04:27:35.078Z,25.66
2023-02-17T04:28:35.104Z,25.63
2023-02-17T04:29:35.056Z,25.64
2023-02-17T04:30:35.154Z,25.67
2023-02-17T04:31:35.175Z,25.67
2023-02-17T04:32:35.043Z,25.68
2023-02-17T04:33:35.028Z,25.68
2023-02-17T04:34:35.021Z,25.71
2023-02-17T04:35:35.020Z,25.74
2023-02-17T04:36:35.021Z,25.71
2023-02-17T04:37:34.997Z,25.74
2023-02-17T04:38:34.999Z,25.73
2023-02-17T04:39:35.006Z,25.73
2023-02-17T04:40:35.024Z,25.74
2023-02-17T04:41:35.001Z,25.73
2023-02-17T04:42:34.991Z,25.74
2023-02-17T04:43:34.994Z,25.71
2023-02-17T04:44:34.961Z,25.74
2023-02-17T04:45:34.978Z,25.71
2023-02-17T04:46:34.963Z,25.71
2023-02-17T04:47:34.984Z,25.73
2023-02-17T04:48:34.942Z,25.74
2023-02-17T04:49:34.952Z,25.73
2023-02-17T04:50:34.920Z,25.74
2023-02-17T04:51:34.932Z,25.74
2023-02-17T04:52:34.932Z,25.74
2023-02-17T04:53:34.895Z,25.74
2023-02-17T04:54:34.902Z,25.75
2023-02-17T04:55:34.897Z,25.74
2023-02-17T04:56:34.916Z,25.74
2023-02-17T04:57:34.869Z,25.75
2023-02-17T04:58:34.875Z,25.75
2023-02-17T04:59:34.861Z,25.75
2023-02-17T05:00:34.841Z,25.75
2023-02-17T05:01:34.907Z,25.75
2023-02-17T05:02:34.844Z,25.75
2023-02-17T05:03:34.842Z,25.77
2023-02-17T05:04:34.865Z,25.73
2023-02-17T05:05:34.826Z,25.74
2023-02-17T05:06:34.814Z,25.74
2023-02-17T05:07:34.810Z,25.77
2023-02-17T05:08:34.833Z,25.74
2023-02-17T05:09:34.820Z,25.74
2023-02-17T05:10:34.824Z,25.74
2023-02-17T05:11:34.813Z,25.77
2023-02-17T05:12:34.813Z,25.74
2023-02-17T05:13:34.810Z,25.74
2023-02-17T05:14:34.805Z,25.73
2023-02-17T05:15:35.138Z,25.74
2023-02-17T05:16:34.760Z,25.73
2023-02-17T05:17:34.751Z,25.74
2023-02-17T05:18:34.760Z,25.73
2023-02-17T05:19:34.769Z,25.74
2023-02-17T05:20:34.751Z,25.73
2023-02-17T05:21:34.748Z,25.73
2023-02-17T05:22:34.747Z,25.73
2023-02-17T05:23:34.729Z,25.75
2023-02-17T05:24:34.732Z,25.74
2023-02-17T05:25:34.727Z,25.75
2023-02-17T05:26:34.750Z,25.73
2023-02-17T05:27:34.726Z,25.73
2023-02-17T05:28:34.714Z,25.74
2023-02-17T05:29:34.723Z,25.75
2023-02-17T05:30:34.719Z,25.73
2023-02-17T05:31:34.779Z,25.73
2023-02-17T05:32:34.722Z,25.74
2023-02-17T05:33:34.746Z,25.73
2023-02-17T05:34:34.711Z,25.71
2023-02-17T05:35:35.134Z,25.73
2023-02-17T05:36:34.728Z,25.70
2023-02-17T05:37:34.741Z,25.71
2023-02-17T05:38:34.707Z,25.71
2023-02-17T05:39:34.721Z,25.70
2023-02-17T05:40:34.710Z,25.68
2023-02-17T05:41:34.722Z,25.68
2023-02-17T05:42:34.733Z,25.70
2023-02-17T05:43:34.699Z,25.68
2023-02-17T05:44:34.703Z,25.67
2023-02-17T05:45:34.698Z,25.66
2023-02-17T05:46:34.712Z,25.66
2023-02-17T05:47:34.696Z,25.66
2023-02-17T05:48:34.690Z,25.64
2023-02-17T05:49:34.679Z,25.63
2023-02-17T05:50:34.679Z,25.63
2023-02-17T05:51:34.686Z,25.63
2023-02-17T05:52:34.675Z,25.60
2023-02-17T05:53:34.677Z,25.58
2023-02-17T05:54:34.656Z,25.60
2023-02-17T05:55:34.640Z,25.58
2023-02-17T05:56:34.642Z,25.56
2023-02-17T05:57:34.670Z,25.56
2023-02-17T05:58:34.654Z,25.56
2023-02-17T05:59:34.608Z,25.53
2023-02-17T06:00:34.662Z,25.51
2023-02-17T06:01:37.058Z,25.49
2023-02-17T06:02:34.624Z,25.49
2023-02-17T06:03:34.592Z,25.46
2023-02-17T06:04:34.641Z,25.43
2023-02-17T06:05:34.597Z,25.44
2023-02-17T06:06:34.590Z,25.41
2023-02-17T06:07:34.585Z,25.39
2023-02-17T06:08:34.582Z,25.37
2023-02-17T06:09:34.556Z,25.40
2023-02-17T06:10:34.550Z,25.39
2023-02-17T06:11:34.535Z,25.37
2023-02-17T06:12:34.572Z,25.37
2023-02-17T06:13:34.526Z,25.34
2023-02-17T06:14:34.521Z,25.36
2023-02-17T06:15:34.544Z,25.34
2023-02-17T06:16:34.557Z,25.34
2023-02-17T06:17:34.535Z,25.33
2023-02-17T06:18:34.534Z,25.33
2023-02-17T06:19:34.546Z,25.32
2023-02-17T06:20:34.516Z,25.30
2023-02-17T06:21:34.521Z,25.29
2023-02-17T06:22:34.540Z,25.29
2023-02-17T06:23:34.541Z,25.28
2023-02-17T06:24:34.543Z,25.28
2023-02-17T06:25:34.544Z,25.23
2023-02-17T06:26:34.544Z,25.25
2023-02-17T06:27:34.568Z,25.25
2023-02-17T06:28:35.233Z,25.25
2023-02-17T06:29:34.521Z,25.22
2023-02-17T06:30:34.585Z,25.21
2023-02-17T06:31:34.577Z,25.19
2023-02-17T06:32:34.516Z,25.19
2023-02-17T06:33:34.507Z,25.21
2023-02-17T06:34:34.503Z,25.18
2023-02-17T06:35:34.505Z,25.19
2023-02-17T06:36:34.496Z,25.18
2023-02-17T06:37:34.489Z,25.18
2023-02-17T06:38:34.505Z,25.19
2023-02-17T06:39:34.473Z,25.19
2023-02-17T06:40:34.485Z,25.16
2023-02-17T06:41:34.487Z,25.16
2023-02-17T06:42:34.497Z,25.18
2023-02-17T06:43:34.500Z,25.18
2023-02-17T06:44:34.472Z,25.15
2023-02-17T06:45:34.486Z,25.15
2023-02-17T06:46:34.480Z,25.16
2023-02-17T06:47:34.484Z,25.16
2023-02-17T06:48:34.499Z,25.18
2023-02-17T06:49:34.485Z,25.13
2023-02-17T06:50:34.495Z,25.13
2023-02-17T06:51:34.472Z,25.15
2023-02-17T06:52:34.477Z,25.15
2023-02-17T06:53:34.495Z,25.15
2023-02-17T06:54:34.472Z,25.16
2023-02-17T06:55:35.273Z,25.18
2023-02-17T06:56:34.475Z,25.15
2023-02-17T06:57:34.477Z,25.15
2023-02-17T06:58:34.489Z,25.16
2023-02-17T06:59:34.475Z,25.16
2023-02-17T07:00:34.476Z,25.19
2023-02-17T07:01:34.470Z,25.18
2023-02-17T07:02:34.550Z,25.13
2023-02-17T07:03:34.485Z,25.16
2023-02-17T07:04:34.499Z,25.16
2023-02-17T07:05:34.460Z,25.15
2023-02-17T07:06:34.461Z,25.15
2023-02-17T07:07:34.475Z,25.16
2023-02-17T07:08:34.483Z,25.12
2023-02-17T07:09:34.475Z,25.13
2023-02-17T07:10:34.443Z,25.13
2023-02-17T07:11:34.570Z,25.15
2023-02-17T07:12:34.428Z,25.12
2023-02-17T07:13:34.449Z,25.13
2023-02-17T07:14:34.406Z,25.13
2023-02-17T07:15:34.382Z,25.12
2023-02-17T07:16:34.460Z,25.12
2023-02-17T07:17:34.379Z,25.13
2023-02-17T07:18:34.400Z,25.15
2023-02-17T07:19:34.404Z,25.12
2023-02-17T07:20:34.405Z,25.12
2023-02-17T07:21:34.380Z,25.11
2023-02-17T07:22:34.409Z,25.11
2023-02-17T07:23:34.408Z,25.11
2023-02-17T07:24:34.353Z,25.11
2023-02-17T07:25:34.348Z,25.11
2023-02-17T07:26:34.354Z,25.12
2023-02-17T07:27:34.333Z,25.12
2023-02-17T07:28:34.335Z,25.12
2023-02-17T07:29:34.304Z,25.11
2023-02-17T07:30:34.452Z,25.09
2023-02-17T07:31:34.337Z,25.08
2023-02-17T07:32:34.269Z,25.09
2023-02-17T07:33:34.277Z,25.09
2023-02-17T07:34:34.293Z,25.08
2023-02-17T07:35:34.289Z,25.09
2023-02-17T07:36:34.265Z,25.06
2023-02-17T07:37:34.258Z,25.06
2023-02-17T07:38:34.263Z,25.08
2023-02-17T07:39:34.270Z,25.04
2023-02-17T07:40:34.256Z,25.08
2023-02-17T07:41:34.238Z,25.08
2023-02-17T07:42:34.224Z,25.06
2023-02-17T07:43:34.207Z,25.08
2023-02-17T07:44:34.232Z,25.04
2023-02-17T07:45:34.214Z,25.04
2023-02-17T07:46:34.186Z,25.01
2023-02-17T07:47:34.191Z,25.05
2023-02-17T07:48:34.211Z,25.06
2023-02-17T07:49:34.212Z,25.01
2023-02-17T07:50:34.187Z,25.04
2023-02-17T07:51:34.173Z,25.02
2023-02-17T07:52:34.188Z,25.02
2023-02-17T07:53:34.188Z,25.02
2023-02-17T07:54:34.189Z,25.04
2023-02-17T07:55:34.164Z,25.02
2023-02-17T07:56:34.196Z,25.02
2023-02-17T07:57:34.154Z,25.04
2023-02-17T07:58:34.223Z,25.04
2023-02-17T07:59:34.178Z,25.04
2023-02-17T08:00:34.177Z,25.04
2023-02-17T08:01:34.166Z,25.04
2023-02-17T08:02:34.178Z,25.02
2023-02-17T08:03:34.208Z,25.04
2023-02-17T08:04:34.277Z,25.04
2023-02-17T08:05:34.170Z,25.02
2023-02-17T08:06:34.174Z,25.04
2023-02-17T08:07:34.172Z,25.02
2023-02-17T08:08:34.178Z,25.04
2023-02-17T08:09:34.192Z,25.01
2023-02-17T08:10:34.146Z,25.02
2023-02-17T08:11:34.195Z,24.99
2023-02-17T08:12:34.168Z,25.02
2023-02-17T08:13:34.166Z,24.99
2023-02-17T08:14:34.178Z,24.99
2023-02-17T08:15:34.160Z,25.02
2023-02-17T08:16:34.184Z,25.01
2023-02-17T08:17:34.189Z,25.01
2023-02-17T08:18:36.451Z,24.99
2023-02-17T08:19:47.389Z,25.01
2023-02-17T08:20:35.617Z,25.01
2023-02-17T08:21:34.367Z,25.02
2023-02-17T08:22:34.371Z,25.01
2023-02-17T08:23:34.366Z,25.01
2023-02-17T08:24:34.384Z,25.01
2023-02-17T08:25:34.348Z,24.99
2023-02-17T08:26:34.357Z,24.99
2023-02-17T08:27:34.343Z,25.01
2023-02-17T08:28:34.346Z,25.01
2023-02-17T08:29:34.348Z,25.01
2023-02-17T08:30:34.429Z,24.99
2023-02-17T08:31:34.430Z,25.02
2023-02-17T08:32:34.326Z,24.99
2023-02-17T08:33:34.333Z,25.01
2023-02-17T08:34:34.324Z,25.02
2023-02-17T08:35:34.353Z,24.98
2023-02-17T08:36:34.344Z,25.01
2023-02-17T08:37:34.321Z,25.02
2023-02-17T08:38:34.330Z,25.01
2023-02-17T08:39:34.317Z,25.02
2023-02-17T08:40:34.357Z,24.99
2023-02-17T08:41:34.305Z,25.02
2023-02-17T08:42:34.298Z,25.04
2023-02-17T08:43:34.318Z,25.08
2023-02-17T08:44:34.324Z,25.09
2023-02-17T08:45:34.377Z,25.09
2023-02-17T08:46:34.325Z,25.16
2023-02-17T08:47:34.298Z,25.19
2023-02-17T08:48:35.896Z,25.19
2023-02-17T08:49:34.284Z,25.25
2023-02-17T08:50:34.304Z,25.23
2023-02-17T08:51:34.293Z,25.29
2023-02-17T08:52:34.285Z,25.29
2023-02-17T08:53:34.279Z,25.32
2023-02-17T08:54:34.237Z,25.36
2023-02-17T08:55:48.308Z,25.37
2023-02-17T08:56:35.305Z,25.41
2023-02-17T08:57:34.261Z,25.44
2023-02-17T08:58:34.238Z,25.43
2023-02-17T08:59:34.254Z,25.47
2023-02-17T09:00:34.233Z,25.47
2023-02-17T09:01:34.280Z,25.49
2023-02-17T09:02:34.219Z,25.54
2023-02-17T09:03:34.201Z,25.56
2023-02-17T09:04:34.211Z,25.60
2023-02-17T09:05:34.183Z,25.60
2023-02-17T09:06:34.178Z,25.63
2023-02-17T09:07:34.152Z,25.66
2023-02-17T09:08:34.190Z,25.64
2023-02-17T09:09:34.163Z,25.66
2023-02-17T09:10:34.196Z,25.67
2023-02-17T09:11:34.184Z,25.67
2023-02-17T09:12:34.139Z,25.70
2023-02-17T09:13:34.164Z,25.73
2023-02-17T09:14:34.162Z,25.75
2023-02-17T09:15:34.234Z,25.75
2023-02-17T09:16:34.118Z,25.78
2023-02-17T09:17:34.134Z,25.83
2023-02-17T09:18:34.098Z,25.81
2023-02-17T09:19:34.115Z,25.81
2023-02-17T09:20:34.121Z,25.83
2023-02-17T09:21:34.127Z,25.85
2023-02-17T09:22:34.091Z,25.84
2023-02-17T09:23:34.137Z,25.85
2023-02-17T09:24:34.119Z,25.87
2023-02-17T09:25:34.059Z,25.91
2023-02-17T09:26:34.070Z,25.89
2023-02-17T09:27:34.030Z,25.91
2023-02-17T09:28:34.120Z,25.91
2023-02-17T09:29:34.003Z,25.91
2023-02-17T09:30:34.102Z,25.92
2023-02-17T09:31:34.267Z,25.92
2023-02-17T09:32:34.059Z,25.89
2023-02-17T09:33:33.993Z,25.92
2023-02-17T09:34:33.947Z,25.95
2023-02-17T09:35:33.924Z,25.96
2023-02-17T09:36:33.928Z,25.99
2023-02-17T09:37:33.937Z,25.96
2023-02-17T09:38:33.939Z,26.01
2023-02-17T09:39:33.892Z,25.99
2023-02-17T09:40:33.861Z,26.02
2023-02-17T09:41:33.897Z,26.02
2023-02-17T09:42:33.885Z,26.01
2023-02-17T09:43:33.826Z,26.02
2023-02-17T09:44:33.878Z,26.03
2023-02-17T09:45:33.844Z,26.03
2023-02-17T09:46:33.887Z,26.05
2023-02-17T09:47:33.816Z,26.06
2023-02-17T09:48:33.781Z,26.05
2023-02-17T09:49:33.760Z,26.08
2023-02-17T09:50:33.806Z,26.09
2023-02-17T09:51:33.801Z,26.11
2023-02-17T09:52:33.734Z,26.11
2023-02-17T09:53:33.732Z,26.11
2023-02-17T09:54:33.704Z,26.12
2023-02-17T09:55:33.688Z,26.11
2023-02-17T09:56:33.795Z,26.16
2023-02-17T09:57:33.679Z,26.19
2023-02-17T09:58:33.742Z,26.25
2023-02-17T09:59:33.633Z,26.26
2023-02-17T10:00:33.632Z,26.32
2023-02-17T10:01:33.644Z,26.36
2023-02-17T10:02:33.679Z,26.39
2023-02-17T10:03:33.648Z,26.43
2023-02-17T10:04:33.691Z,26.50
2023-02-17T10:05:33.610Z,26.53
2023-02-17T10:06:33.560Z,26.61
2023-02-17T10:07:33.518Z,26.64
2023-02-17T10:08:33.517Z,26.70
2023-02-17T10:09:33.545Z,26.74
2023-02-17T10:10:33.472Z,26.73
2023-02-17T10:11:33.556Z,26.77
2023-02-17T10:12:33.398Z,26.73
2023-02-17T10:13:33.496Z,26.71
2023-02-17T10:14:33.422Z,26.73
2023-02-17T10:15:33.393Z,26.75
2023-02-17T10:16:33.365Z,26.75
2023-02-17T10:17:33.316Z,26.74
2023-02-17T10:18:33.319Z,26.77
2023-02-17T10:19:33.318Z,26.77
2023-02-17T10:20:33.323Z,26.77
2023-02-17T10:21:33.303Z,26.74
2023-02-17T10:22:33.268Z,26.77
2023-02-17T10:23:33.210Z,26.75
2023-02-17T10:24:33.185Z,26.74
2023-02-17T10:25:33.200Z,26.74
2023-02-17T10:26:33.170Z,26.70
2023-02-17T10:27:33.141Z,26.71
2023-02-17T10:28:33.195Z,26.71
2023-02-17T10:29:33.110Z,26.73
2023-02-17T10:30:33.217Z,26.73
2023-02-17T10:31:33.161Z,26.71
2023-02-17T10:32:33.251Z,26.74
2023-02-17T10:33:33.102Z,26.74
2023-02-17T10:34:33.099Z,26.75
2023-02-17T10:35:33.065Z,26.80
2023-02-17T10:36:33.073Z,26.80
2023-02-17T10:37:32.999Z,26.81
2023-02-17T10:38:32.942Z,26.82
2023-02-17T10:39:32.951Z,26.85
2023-02-17T10:40:32.910Z,26.91
2023-02-17T10:41:32.992Z,26.97
2023-02-17T10:42:32.873Z,27.01
2023-02-17T10:43:32.859Z,27.10
2023-02-17T10:44:32.823Z,27.13
2023-02-17T10:45:32.829Z,27.17
2023-02-17T10:46:32.852Z,27.21
2023-02-17T10:47:32.796Z,27.25
2023-02-17T10:48:32.754Z,27.26
2023-02-17T10:49:32.707Z,27.28
2023-02-17T10:50:32.729Z,27.30
2023-02-17T10:51:32.674Z,27.30
2023-02-17T10:52:32.691Z,27.29
2023-02-17T10:53:32.634Z,27.34
2023-02-17T10:54:32.599Z,27.42
2023-02-17T10:55:32.601Z,27.49
2023-02-17T10:56:32.570Z,27.53
2023-02-17T10:57:32.582Z,27.54
2023-02-17T10:58:32.525Z,27.57
2023-02-17T10:59:32.539Z,27.60
2023-02-17T11:00:32.514Z,27.62
2023-02-17T11:01:32.511Z,27.64
2023-02-17T11:02:32.473Z,27.64
2023-02-17T11:03:32.452Z,27.64
2023-02-17T11:04:32.405Z,27.62
2023-02-17T11:05:32.386Z,27.61
2023-02-17T11:06:32.349Z,27.58
2023-02-17T11:07:32.380Z,27.60
2023-02-17T11:08:32.315Z,27.57
2023-02-17T11:09:32.301Z,27.56
2023-02-17T11:10:32.254Z,27.53
2023-02-17T11:11:32.239Z,27.49
2023-02-17T11:12:32.262Z,27.49
2023-02-17T11:13:32.221Z,27.43
2023-02-17T11:14:32.203Z,27.44
2023-02-17T11:15:32.144Z,27.43
2023-02-17T11:16:32.161Z,27.37
2023-02-17T11:17:32.104Z,27.36
2023-02-17T11:18:32.063Z,27.34
2023-02-17T11:19:32.072Z,27.33
2023-02-17T11:20:32.034Z,27.30
2023-02-17T11:21:32.009Z,27.30
2023-02-17T11:22:32.066Z,27.29
2023-02-17T11:23:31.973Z,27.29
2023-02-17T11:24:31.974Z,27.28
2023-02-17T11:25:31.933Z,27.25
2023-02-17T11:26:31.917Z,27.26
2023-02-17T11:27:31.925Z,27.25
2023-02-17T11:28:31.892Z,27.25
2023-02-17T11:29:31.884Z,27.26
2023-02-17T11:30:31.905Z,27.26
2023-02-17T11:31:31.960Z,27.30
2023-02-17T11:32:31.805Z,27.32
2023-02-17T11:33:31.805Z,27.34
2023-02-17T11:34:31.772Z,27.42
2023-02-17T11:35:31.735Z,27.46
2023-02-17T11:36:31.732Z,27.54
2023-02-17T11:37:31.697Z,27.60
2023-02-17T11:38:31.709Z,27.62
2023-02-17T11:39:31.670Z,27.71
2023-02-17T11:40:31.646Z,27.78
2023-02-17T11:41:31.610Z,27.83
2023-02-17T11:42:31.612Z,27.91
2023-02-17T11:43:31.586Z,27.95
2023-02-17T11:44:31.574Z,27.95
2023-02-17T11:45:31.563Z,27.96
2023-02-17T11:46:31.493Z,28.01
2023-02-17T11:47:31.468Z,28.06
2023-02-17T11:48:31.498Z,28.06
2023-02-17T11:49:31.459Z,28.09
2023-02-17T11:50:41.260Z,28.09
2023-02-17T11:51:32.376Z,28.12
2023-02-17T11:52:31.395Z,28.09
2023-02-17T11:53:31.349Z,28.13
2023-02-17T11:54:31.297Z,28.13
2023-02-17T11:55:31.291Z,28.15
2023-02-17T11:56:31.260Z,28.20
2023-02-17T11:57:31.252Z,28.23
2023-02-17T11:58:31.257Z,28.20
2023-02-17T11:59:31.210Z,28.24
2023-02-17T12:00:31.162Z,28.29
2023-02-17T12:01:31.131Z,28.35
2023-02-17T12:02:31.119Z,28.37
2023-02-17T12:03:31.141Z,28.37
2023-02-17T12:04:31.074Z,28.39
2023-02-17T12:05:31.028Z,28.43
2023-02-17T12:06:31.013Z,28.44
2023-02-17T12:07:30.994Z,28.42
2023-02-17T12:08:30.985Z,28.42
2023-02-17T12:09:30.937Z,28.39
2023-02-17T12:10:30.913Z,28.36
2023-02-17T12:11:30.880Z,28.36
2023-02-17T12:12:30.869Z,28.33
2023-02-17T12:13:30.878Z,28.35
2023-02-17T12:14:31.461Z,28.33
2023-02-17T12:15:30.769Z,28.40
2023-02-17T12:16:30.782Z,28.46
2023-02-17T12:17:30.718Z,28.54
2023-02-17T12:18:30.684Z,28.53
2023-02-17T12:19:30.978Z,28.47
2023-02-17T12:20:30.610Z,28.46
2023-02-17T12:21:30.603Z,28.43
2023-02-17T12:22:30.574Z,28.46
2023-02-17T12:23:30.537Z,28.44
2023-02-17T12:24:30.543Z,28.43
2023-02-17T12:25:30.496Z,28.46
2023-02-17T12:26:30.465Z,28.51
2023-02-17T12:27:30.420Z,28.54
2023-02-17T12:28:30.423Z,28.58
2023-02-17T12:29:30.430Z,28.63
2023-02-17T12:30:30.450Z,28.64
2023-02-17T12:31:30.387Z,28.68
2023-02-17T12:32:30.305Z,28.68
2023-02-17T12:33:30.269Z,28.70
2023-02-17T12:34:30.239Z,28.73
2023-02-17T12:35:30.204Z,28.77
2023-02-17T12:36:30.169Z,28.77
2023-02-17T12:37:30.137Z,28.78
2023-02-17T12:38:30.121Z,28.78
2023-02-17T12:39:30.089Z,28.81
2023-02-17T12:40:30.025Z,28.84
2023-02-17T12:41:30.044Z,28.84
2023-02-17T12:42:29.972Z,28.88
2023-02-17T12:43:29.941Z,28.90
2023-02-17T12:44:29.920Z,28.91
2023-02-17T12:45:29.883Z,28.92
2023-02-17T12:46:29.855Z,28.92
2023-02-17T12:47:29.817Z,28.97
2023-02-17T12:48:29.775Z,28.98
2023-02-17T12:49:29.776Z,28.97
2023-02-17T12:50:29.697Z,28.99
2023-02-17T12:51:29.778Z,28.99
2023-02-17T12:52:29.657Z,29.03
2023-02-17T12:53:29.614Z,29.02
2023-02-17T12:54:29.613Z,29.02
2023-02-17T12:55:29.542Z,29.08
2023-02-17T12:56:29.517Z,29.06
2023-02-17T12:57:29.494Z,29.09
2023-02-17T12:58:29.437Z,29.10
2023-02-17T12:59:29.477Z,29.10
2023-02-17T13:00:29.385Z,29.13
2023-02-17T13:01:29.362Z,29.13
2023-02-17T13:02:29.355Z,29.16
2023-02-17T13:03:29.284Z,29.16
2023-02-17T13:04:29.267Z,29.19
2023-02-17T13:05:29.194Z,29.22
2023-02-17T13:06:29.199Z,29.20
2023-02-17T13:07:29.131Z,29.23
2023-02-17T13:08:29.110Z,29.26
2023-02-17T13:09:29.111Z,29.27
2023-02-17T13:10:29.072Z,29.27
2023-02-17T13:11:29.006Z,29.29
2023-02-17T13:12:28.995Z,29.32
2023-02-17T13:13:28.964Z,29.33
2023-02-17T13:14:28.910Z,29.34
2023-02-17T13:15:28.889Z,29.29
2023-02-17T13:16:28.825Z,29.32
2023-02-17T13:17:28.803Z,29.40
2023-02-17T13:18:28.742Z,29.36
2023-02-17T13:19:28.698Z,29.42